NCAR-RAP Real-Time Weather Data

Output produced by METARs form (23 February 2020  01:09 UTC)
found at http://weather.rap.ucar.edu/surface/
 
KTPA 230053Z 05009KT 10SM FEW065 17/09 A3026 RMK AO2 SLP248 T01670089
KTPA 222353Z 05008KT 10SM FEW065 18/09 A3025 RMK AO2 SLP244 T01780089 10222 20178 53007
KTPA 222253Z 04007G15KT 10SM BKN060 21/08 A3024 RMK AO2 SLP238 T02060078
KTPA 222153Z VRB06KT 10SM SCT055 22/07 A3023 RMK AO2 SLP236 T02170067
KTPA 222053Z 02009KT 10SM FEW050 21/07 A3023 RMK AO2 SLP237 T02110072 56025
KTPA 221953Z 02005KT 10SM FEW050 22/08 A3024 RMK AO2 SLP240 T02170078
KTPA 221853Z 05008KT 10SM FEW040 21/07 A3026 RMK AO2 SLP247 T02060072
KTPA 221753Z 02008G15KT 10SM CLR 19/07 A3031 RMK AO2 SLP262 T01890072 10189 20056 58014
KTPA 221653Z 03009G15KT 10SM CLR 17/06 A3033 RMK AO2 SLP270 T01720061
KTPA 221553Z 03009G15KT 360V060 10SM CLR 15/06 A3035 RMK AO2 SLP276 T01500056
KTPA 221453Z 03010G18KT 10SM CLR 13/04 A3035 RMK AO2 SLP275 T01280044 51017
KTPA 221353Z 03013KT 10SM CLR 09/02 A3034 RMK AO2 SLP272 T00940022
KTPA 221253Z 01006KT 10SM CLR 07/01 A3031 RMK AO2 SLP265 T00670011
KTPA 221153Z 01008KT 10SM CLR 06/00 A3030 RMK AO2 SLP258 T00560000 10072 20050 53008
KTPA 221053Z 01009KT 10SM CLR 06/00 A3028 RMK AO2 SLP255 T00560000
KTPA 220953Z 01010KT 10SM CLR 06/00 A3028 RMK AO2 SLP254 T00560000
KTPA 220853Z 36010KT 10SM CLR 06/00 A3027 RMK AO2 SLP251 T00610000 56015
KTPA 220753Z 01009KT 10SM CLR 07/00 A3028 RMK AO2 SLP252 T00670000
KTPA 220653Z 01011KT 10SM CLR 07/01 A3030 RMK AO2 SLP260 T00670006
KTPA 220553Z 01011G20KT 10SM CLR 07/01 A3032 RMK AO2 SLP266 T00720006 10094 20072 58011
KTPA 220453Z 01011G23KT 10SM CLR 08/01 A3033 RMK AO2 SLP271 T00780006 402280078
KTPA 220353Z 01011G19KT 10SM CLR 08/01 A3035 RMK AO2 SLP275 T00830006
KTPA 220253Z 02011G21KT 10SM SCT031 BKN042 08/01 A3035 RMK AO2 SLP276 T00830006 51023
KTPA 220153Z 03014G25KT 10SM FEW024 BKN032 09/02 A3033 RMK AO2 SLP271 T00890017
KTPA 220146Z 02015G25KT 10SM SCT024 OVC032 09/02 A3033 RMK AO2 T00890017
KTPA 220053Z 02014G23KT 10SM OVC024 09/03 A3030 RMK AO2 SLP261 T00940033
KTPA 220025Z 01011G19KT 10SM BKN023 OVC030 09/03 A3029 RMK AO2 T00940033
KTPA 212353Z 02013G18KT 10SM SCT021 09/03 A3028 RMK AO2 SLP254 SCT V BKN T00940033 10139 20094 53019
KTPA 212332Z 03014G20KT 10SM SCT021 09/03 A3027 RMK AO2 T00940033
KTPA 212253Z 02015G23KT 10SM BKN023 OVC031 10/04 A3027 RMK AO2 SLP248 T01000039
KTPA 212153Z 02015G21KT 10SM OVC021 11/05 A3024 RMK AO2 SLP239 T01110050
KTPA 212053Z 02012G20KT 10SM OVC021 12/06 A3023 RMK AO2 SLP235 T01170056 55003
KTPA 211953Z 01013G21KT 10SM OVC023 13/06 A3021 RMK AO2 SLP230 CIG 023V027 T01330061
KTPA 211853Z 36013G21KT 10SM OVC020 13/07 A3021 RMK AO2 SLP230 T01330067
KTPA 211753Z 01012KT 10SM OVC020 13/07 A3023 RMK AO2 SLP237 T01330067 10139 20100 58003
KTPA 211653Z 01015G21KT 10SM BKN019 OVC025 13/07 A3025 RMK AO2 PK WND 04026/1603 SLP242 T01330067
KTPA 211553Z 02013G21KT 10SM OVC016 12/06 A3026 RMK AO2 SLP245 T01170061
KTPA 211500Z 01011G21KT 10SM OVC015 11/06 A3025 RMK AO2 T01110061
KTPA 211453Z 02012G22KT 10SM OVC013 11/06 A3024 RMK AO2 SLP240 T01060061 51042
KTPA 211353Z 01012G20KT 9SM OVC010 10/07 A3021 RMK AO2 SLP229 T01000072
KTPA 211253Z 02012G21KT 6SM HZ BKN013 OVC024 11/08 A3017 RMK AO2 SLP215 T01110083
KTPA 211214Z 02013G22KT 10SM SCT008 BKN013 OVC024 12/08 A3013 RMK AO2 T01170083
KTPA 211153Z 01011G17KT 9SM OVC011 12/09 A3012 RMK AO2 SLP199 60001 70001 T01220094 10228 20122 51041
KTPA 211053Z 03014G21KT 10SM OVC011 13/09 A3008 RMK AO2 SLP185 T01280094
KTPA 211025Z 02013G22KT 10SM OVC010 13/10 A3007 RMK AO2 T01330100
KTPA 211000Z 02016G25KT 10SM OVC009 13/11 A3006 RMK AO2 T01330106
KTPA 210953Z 03013KT 10SM BKN013 OVC032 14/11 A3005 RMK AO2 SLP177 T01390111
KTPA 210853Z 33009KT 10SM BKN013 BKN017 OVC034 21/19 A3000 RMK AO2 RAE06 SLP158 P0000 60001 T02110189 55009
KTPA 210753Z 27014G22KT 5SM -RA BR BKN013 BKN021 OVC027 22/20 A2999 RMK AO2 RAB28 SLP154 P0001 T02220200
KTPA 210700Z 23009KT 10SM FEW011 SCT018 OVC034 23/21 A3001 RMK AO2 T02280206
KTPA 210653Z 23008KT 10SM BKN009 BKN021 OVC039 23/21 A3001 RMK AO2 SLP161 T02280206
KTPA 210553Z 23008KT 10SM BKN009 OVC075 22/21 A3003 RMK AO2 SLP167 T02220206 10239 20222 58015
KTPA 210453Z 23007KT 10SM BKN008 OVC013 22/21 A3005 RMK AO2 CIG 005V012 SLP176 T02220206 402780211
KTPA 210423Z 24007KT 10SM BKN008 OVC014 22/21 A3006 RMK AO2 CIG 007V011 T02220206
KTPA 210353Z 26007KT 10SM BKN011 22/20 A3007 RMK AO2 SLP180 T02220200
KTPA 210335Z 27007KT 10SM BKN009 22/20 A3007 RMK AO2 CIG 007V013 T02220200
KTPA 210253Z 27008KT 10SM FEW009 SCT022 BKN031 23/20 A3007 RMK AO2 SLP182 T02280200 51004
KTPA 210224Z 28009G22KT 10SM SCT009 SCT030 23/20 A3007 RMK AO2 T02280200
KTPA 210153Z 30006KT 10SM SCT010 BKN043 23/19 A3007 RMK AO2 SLP181 T02280194
KTPA 210151Z 30006KT 10SM SCT010 BKN043 23/20 A3007 RMK AO2